Time;durP1;ratioP1;P1;durP2;ratioP2;P2;SDS_P1;SDS_P2;PMS_P1;PMS_P2;Temp;Humidity;BMP_temperature;BMP_pressure;BME280_temperature;BME280_humidity;BME280_pressure;Samples;Min_cycle;Max_cycle;Signal;HPM_P1;HPM_P2
2022/12/02 00:00:02;;;;;;;;;;;;;;;6.75;58.97;101948.47;5053421;28;20058;-56
2022/12/02 00:02:29;;;;;;;;;;;;;;;6.72;58.95;101943.19;5054319;28;20004;-56
2022/12/02 00:04:56;;;;;;;;;;;;;;;6.70;59.16;101939.66;5051151;28;20031;-55
2022/12/02 00:07:22;;;;;;;;;;;;;;;6.71;59.17;101941.44;5054777;28;19917;-55
2022/12/02 00:09:47;;;;;;;;;;;;;;;6.66;59.74;101946.53;5054245;28;19927;-58
2022/12/02 00:12:23;;;;;;;;;;;;;;;6.62;61.16;101940.41;5043549;28;19921;-60
2022/12/02 00:14:55;;;;;;;;;;;;;;;6.68;59.21;101941.38;5034082;28;19917;-60
2022/12/02 00:17:21;;;;;;;;;;;;;;;6.58;59.24;101945.50;5034293;28;19917;-61
2022/12/02 00:19:46;;;;;;;;;;;;;;;6.57;59.42;101939.41;5048284;28;19928;-60
2022/12/02 00:22:11;;;;;;;;;;;;;;;6.58;59.26;101940.28;5042866;28;19925;-60
2022/12/02 00:24:36;;;;;;;;;;;;;;;6.48;59.56;101941.84;5047206;28;20268;-59
2022/12/02 00:27:02;;;;;;;;;;;;;;;6.49;59.39;101937.50;5035330;28;19921;-60
2022/12/02 00:29:27;;;;;;;;;;;;;;;6.56;58.97;101932.44;5053663;28;19927;-59
2022/12/02 00:31:52;;;;;;;;;;;;;;;6.46;59.13;101935.72;5040845;28;20030;-59
2022/12/02 00:34:17;;;;;;;;;;;;;;;6.49;59.37;101930.56;5033450;28;20388;-59
2022/12/02 00:36:43;;;;;;;;;;;;;;;6.46;59.45;101934.84;5033910;28;19983;-59
2022/12/02 00:39:08;;;;;;;;;;;;;;;6.46;59.41;101933.09;5043418;28;19951;-60
2022/12/02 00:41:33;;;;;;;;;;;;;;;6.45;59.13;101928.72;5033828;28;19928;-60
2022/12/02 00:46:42;;;;;;;;;;;;;;;6.36;59.43;101929.44;5033677;28;19947;-59
2022/12/02 00:49:11;;;;;;;;;;;;;;;6.32;60.28;101925.00;5033805;28;20427;-60
2022/12/02 00:51:37;;;;;;;;;;;;;;;6.34;60.22;101922.41;5044376;28;19928;-60
2022/12/02 00:54:03;;;;;;;;;;;;;;;6.43;59.52;101919.13;5053710;28;19921;-60
2022/12/02 00:56:28;;;;;;;;;;;;;;;6.47;59.71;101921.81;5044962;28;19948;-59
2022/12/02 00:58:54;;;;;;;;;;;;;;;6.44;59.43;101921.75;5034913;28;20004;-59
2022/12/02 01:01:19;;;;;;;;;;;;;;;6.40;59.38;101920.81;5033681;28;19959;-58
2022/12/02 01:03:45;;;;;;;;;;;;;;;6.39;59.63;101921.66;5050216;28;20430;-59
2022/12/02 01:06:10;;;;;;;;;;;;;;;6.38;59.65;101922.53;5048894;28;20388;-59
2022/12/02 01:08:35;;;;;;;;;;;;;;;6.22;59.80;101914.34;5050058;28;19936;-59
2022/12/02 01:11:00;;;;;;;;;;;;;;;6.18;59.96;101913.38;5045256;28;20384;-59
2022/12/02 01:13:26;;;;;;;;;;;;;;;6.06;60.63;101910.53;5049380;28;20010;-58
2022/12/02 01:15:51;;;;;;;;;;;;;;;6.01;61.18;101913.03;5042053;28;19921;-59
2022/12/02 01:18:17;;;;;;;;;;;;;;;5.94;60.60;101908.53;5036582;28;19924;-59
2022/12/02 01:20:43;;;;;;;;;;;;;;;5.95;62.16;101909.44;5042967;28;20019;-58
2022/12/02 01:23:08;;;;;;;;;;;;;;;5.87;61.11;101904.88;5047498;28;19959;-61
2022/12/02 01:25:33;;;;;;;;;;;;;;;5.79;60.75;101902.97;5036289;28;19964;-59
2022/12/02 01:27:58;;;;;;;;;;;;;;;5.99;60.30;101912.13;5035764;28;19933;-58
2022/12/02 01:30:24;;;;;;;;;;;;;;;6.04;60.08;101914.84;5037411;28;19970;-58
2022/12/02 01:32:49;;;;;;;;;;;;;;;6.04;59.78;101913.09;5049907;28;19925;-59
2022/12/02 01:35:14;;;;;;;;;;;;;;;6.08;59.85;101917.53;5048090;28;19986;-59
2022/12/02 01:37:39;;;;;;;;;;;;;;;5.95;59.77;101918.13;5040110;28;19932;-58
2022/12/02 01:40:05;;;;;;;;;;;;;;;6.07;59.52;101921.00;5047159;28;19924;-58
2022/12/02 01:42:31;;;;;;;;;;;;;;;6.16;59.48;101910.75;5051906;28;20016;-58
2022/12/02 01:44:57;;;;;;;;;;;;;;;6.16;59.33;101915.09;5052715;28;19924;-58
2022/12/02 01:47:22;;;;;;;;;;;;;;;6.20;58.89;101918.66;5052801;28;20003;-59
2022/12/02 01:49:47;;;;;;;;;;;;;;;6.22;59.01;101915.22;5046324;28;19933;-59
2022/12/02 01:52:13;;;;;;;;;;;;;;;6.02;59.01;101908.69;5040223;28;19988;-59
2022/12/02 01:54:38;;;;;;;;;;;;;;;6.25;59.42;101909.19;5038447;28;20008;-58
2022/12/02 01:57:05;;;;;;;;;;;;;;;6.22;58.82;101909.97;5043244;28;19929;-58
2022/12/02 01:59:31;;;;;;;;;;;;;;;6.07;58.92;101910.56;5045875;28;19921;-59
2022/12/02 02:01:56;;;;;;;;;;;;;;;6.15;59.20;101916.84;5047931;28;19986;-58
2022/12/02 02:04:21;;;;;;;;;;;;;;;6.01;59.08;101912.16;5052018;28;19983;-58
2022/12/02 02:06:46;;;;;;;;;;;;;;;6.00;60.24;101911.28;5047079;28;20373;-58
2022/12/02 02:09:12;;;;;;;;;;;;;;;6.09;59.30;101903.63;5049587;28;19929;-58
2022/12/02 02:11:39;;;;;;;;;;;;;;;6.12;58.94;101902.84;5051902;28;19950;-59
2022/12/02 02:14:05;;;;;;;;;;;;;;;6.15;58.85;101902.91;5048782;28;19991;-58
2022/12/02 02:16:31;;;;;;;;;;;;;;;5.77;59.34;101891.59;5038116;28;20016;-58
2022/12/02 02:18:56;;;;;;;;;;;;;;;5.81;58.96;101896.91;5038634;28;19964;-59
2022/12/02 02:21:23;;;;;;;;;;;;;;;5.81;59.40;101893.44;5042534;28;20020;-59
2022/12/02 02:23:48;;;;;;;;;;;;;;;5.92;59.81;101905.03;5038484;28;19928;-59
2022/12/02 02:26:14;;;;;;;;;;;;;;;5.89;59.09;101903.19;5044531;28;19929;-59
2022/12/02 02:28:39;;;;;;;;;;;;;;;5.87;59.84;101907.50;5052659;28;19925;-58
2022/12/02 02:31:05;;;;;;;;;;;;;;;5.89;58.89;101904.91;5051019;28;19929;-59
2022/12/02 02:33:32;;;;;;;;;;;;;;;5.99;58.63;101901.69;5045563;28;20034;-59
2022/12/02 02:35:58;;;;;;;;;;;;;;;5.93;58.51;101904.16;5051524;28;19927;-59
2022/12/02 02:38:25;;;;;;;;;;;;;;;5.87;58.41;101904.88;5045658;28;20011;-58
2022/12/02 02:40:51;;;;;;;;;;;;;;;5.82;59.40;101892.56;5051904;28;19966;-58
2022/12/02 02:43:18;;;;;;;;;;;;;;;6.00;58.42;101900.84;5039045;28;19924;-59
2022/12/02 02:45:43;;;;;;;;;;;;;;;6.03;58.25;101907.88;5044474;28;19974;-58
2022/12/02 02:48:10;;;;;;;;;;;;;;;6.07;59.50;101907.97;5048364;28;19924;-58
2022/12/02 02:50:36;;;;;;;;;;;;;;;6.17;58.24;101902.06;5049460;28;20015;-60
2022/12/02 02:53:02;;;;;;;;;;;;;;;6.19;57.55;101909.06;5048501;28;20054;-58
2022/12/02 02:55:28;;;;;;;;;;;;;;;6.21;57.24;101912.56;5052230;28;20432;-58
2022/12/02 02:57:53;;;;;;;;;;;;;;;6.06;57.32;101906.19;5050615;28;20296;-58
2022/12/02 03:00:20;;;;;;;;;;;;;;;6.09;57.57;101913.19;5050641;28;19925;-58
2022/12/02 03:02:48;;;;;;;;;;;;;;;6.13;57.37;101910.69;5049649;28;19936;-59
2022/12/02 03:05:13;;;;;;;;;;;;;;;6.04;56.93;101910.50;5043087;28;19967;-59
2022/12/02 03:07:39;;;;;;;;;;;;;;;6.08;57.04;101917.53;5042981;28;20025;-59
2022/12/02 03:10:05;;;;;;;;;;;;;;;6.09;57.18;101916.69;5046449;28;19932;-59
2022/12/02 03:12:30;;;;;;;;;;;;;;;6.02;57.15;101914.78;5051850;28;19925;-59
2022/12/02 03:14:56;;;;;;;;;;;;;;;6.01;57.00;101912.16;5047366;28;19932;-59
2022/12/02 03:17:21;;;;;;;;;;;;;;;5.96;57.12;101917.28;5050407;28;20008;-60
2022/12/02 03:19:47;;;;;;;;;;;;;;;5.93;57.16;101914.59;5051554;28;20027;-58
2022/12/02 03:22:12;;;;;;;;;;;;;;;5.89;57.24;101910.13;5044141;28;19964;-59
2022/12/02 03:24:38;;;;;;;;;;;;;;;5.76;57.13;101913.31;5051367;28;20368;-58
2022/12/02 03:27:04;;;;;;;;;;;;;;;5.85;57.27;101913.53;5042357;28;19932;-59
2022/12/02 03:29:30;;;;;;;;;;;;;;;5.84;57.11;101907.44;5036905;28;19921;-57
2022/12/02 03:31:57;;;;;;;;;;;;;;;5.85;56.95;101913.53;5037025;28;20421;-60
2022/12/02 03:34:23;;;;;;;;;;;;;;;6.00;57.01;101916.50;5037391;28;20419;-60
2022/12/02 03:36:48;;;;;;;;;;;;;;;5.93;56.41;101912.00;5036772;28;19926;-58
2022/12/02 03:39:13;;;;;;;;;;;;;;;6.02;56.37;101912.19;5036728;28;19925;-59
2022/12/02 03:41:39;;;;;;;;;;;;;;;5.91;56.48;101911.06;5036645;28;19917;-58
2022/12/02 03:44:04;;;;;;;;;;;;;;;5.96;56.63;101912.06;5046271;28;19931;-58
2022/12/02 03:46:30;;;;;;;;;;;;;;;5.90;56.54;101906.66;5036933;28;19925;-59
2022/12/02 03:48:56;;;;;;;;;;;;;;;5.92;56.27;101905.91;5036641;28;19928;-58
2022/12/02 03:51:22;;;;;;;;;;;;;;;5.97;56.25;101903.38;5037638;28;19925;-59
2022/12/02 03:53:47;;;;;;;;;;;;;;;5.78;56.69;101901.19;5041146;28;19932;-59
2022/12/02 03:56:12;;;;;;;;;;;;;;;5.79;56.68;101902.97;5048276;28;19929;-58
2022/12/02 03:58:39;;;;;;;;;;;;;;;5.65;56.82;101900.03;5050589;28;19932;-58
2022/12/02 04:01:04;;;;;;;;;;;;;;;5.76;56.78;101903.78;5048219;28;19956;-58
2022/12/02 04:03:30;;;;;;;;;;;;;;;5.78;56.91;101899.44;5049641;28;19983;-58
2022/12/02 04:05:55;;;;;;;;;;;;;;;5.79;57.65;101900.34;5050228;28;19924;-59
2022/12/02 04:08:20;;;;;;;;;;;;;;;5.82;57.71;101905.63;5048367;28;20014;-58
2022/12/02 04:10:46;;;;;;;;;;;;;;;5.78;57.58;101901.19;5049389;28;19932;-58
2022/12/02 04:13:11;;;;;;;;;;;;;;;5.68;57.95;101900.09;5047199;28;19960;-58
2022/12/02 04:15:36;;;;;;;;;;;;;;;5.71;58.94;101900.19;5050562;28;19925;-57
2022/12/02 04:18:01;;;;;;;;;;;;;;;5.81;58.31;101898.66;5048672;28;19939;-57
2022/12/02 04:20:27;;;;;;;;;;;;;;;5.87;57.58;101901.41;5036263;28;20395;-58
2022/12/02 04:22:52;;;;;;;;;;;;;;;5.73;57.74;101892.38;5047765;28;19925;-57
2022/12/02 04:25:17;;;;;;;;;;;;;;;5.56;58.01;101900.72;5046907;28;20014;-57
2022/12/02 04:27:42;;;;;;;;;;;;;;;5.60;57.95;101902.53;5042223;28;19925;-57
2022/12/02 04:30:08;;;;;;;;;;;;;;;5.64;57.91;101909.59;5036538;28;20274;-58
2022/12/02 04:32:33;;;;;;;;;;;;;;;5.54;58.28;101909.31;5035906;28;19934;-58
2022/12/02 04:34:58;;;;;;;;;;;;;;;5.49;57.84;101898.78;5042340;28;20004;-56
2022/12/02 04:37:23;;;;;;;;;;;;;;;5.45;58.15;101902.19;5049309;28;19929;-56
2022/12/02 04:39:49;;;;;;;;;;;;;;;5.48;57.93;101896.16;5048368;28;20004;-57
2022/12/02 04:42:14;;;;;;;;;;;;;;;5.54;57.71;101891.94;5048445;28;19924;-57
2022/12/02 04:44:39;;;;;;;;;;;;;;;5.62;57.83;101890.41;5047224;28;20304;-55
2022/12/02 04:47:04;;;;;;;;;;;;;;;5.73;57.36;101887.16;5037432;28;19925;-58
2022/12/02 04:49:30;;;;;;;;;;;;;;;5.80;57.95;101889.06;5035753;28;19925;-56
2022/12/02 04:51:55;;;;;;;;;;;;;;;5.86;56.99;101889.19;5040176;28;20256;-57
2022/12/02 04:54:20;;;;;;;;;;;;;;;5.85;56.86;101892.66;5042859;28;19932;-53
2022/12/02 04:56:45;;;;;;;;;;;;;;;5.73;56.84;101888.03;5047760;28;19999;-56
2022/12/02 04:59:11;;;;;;;;;;;;;;;5.80;57.36;101891.69;5034635;28;19925;-56
2022/12/02 05:01:36;;;;;;;;;;;;;;;5.81;57.22;101896.91;5035686;28;19929;-57
2022/12/02 05:04:01;;;;;;;;;;;;;;;5.65;58.47;101890.47;5036363;28;19925;-55
2022/12/02 05:06:26;;;;;;;;;;;;;;;5.67;57.65;101887.94;5037384;28;19929;-57
2022/12/02 05:08:51;;;;;;;;;;;;;;;5.76;57.82;101892.47;5042875;28;19932;-57
2022/12/02 05:11:17;;;;;;;;;;;;;;;5.71;57.56;101891.47;5033742;28;19932;-57
2022/12/02 05:13:42;;;;;;;;;;;;;;;5.65;57.78;101894.81;5055254;28;20551;-58
2022/12/02 05:16:07;;;;;;;;;;;;;;;5.31;58.65;101901.88;5069708;28;19925;-57
2022/12/02 05:18:32;;;;;;;;;;;;;;;5.26;58.99;101894.75;5057353;28;19984;-56
2022/12/02 05:20:58;;;;;;;;;;;;;;;5.31;59.04;101898.38;5057424;28;20284;-57
2022/12/02 05:23:23;;;;;;;;;;;;;;;5.26;59.28;101893.03;5048527;28;19929;-56
2022/12/02 05:25:48;;;;;;;;;;;;;;;5.37;58.97;101903.72;5052012;28;19967;-57
2022/12/02 05:28:13;;;;;;;;;;;;;;;5.39;59.49;101897.72;5051240;28;19936;-56
2022/12/02 05:30:39;;;;;;;;;;;;;;;5.49;58.83;101898.78;5048351;28;19933;-56
2022/12/02 05:33:04;;;;;;;;;;;;;;;5.48;58.92;101904.88;5043139;28;20392;-53
2022/12/02 05:35:29;;;;;;;;;;;;;;;5.54;58.78;101907.59;5040964;28;19929;-55
2022/12/02 05:37:55;;;;;;;;;;;;;;;5.64;58.76;101904.38;5041960;28;19981;-56
2022/12/02 05:40:20;;;;;;;;;;;;;;;5.69;58.53;101907.06;5043131;28;19932;-50
2022/12/02 05:42:45;;;;;;;;;;;;;;;5.69;58.95;101902.75;5038964;28;19926;-53
2022/12/02 05:45:14;;;;;;;;;;;;;;;5.67;58.25;101907.06;5040810;28;19932;-54
2022/12/02 05:47:39;;;;;;;;;;;;;;;5.67;58.19;101914.88;5036806;28;20004;-56
2022/12/02 05:50:06;;;;;;;;;;;;;;;5.59;58.04;101913.81;5055932;28;20033;-54
2022/12/02 05:52:32;;;;;;;;;;;;;;;5.63;58.22;101913.06;5056526;28;20004;-54
2022/12/02 05:55:00;;;;;;;;;;;;;;;5.62;58.34;101911.25;5056702;28;19948;-55
2022/12/02 05:57:26;;;;;;;;;;;;;;;5.68;58.18;101910.53;5056524;28;20376;-55
2022/12/02 05:59:56;;;;;;;;;;;;;;;5.59;58.11;101916.44;5052061;28;19921;-55
2022/12/02 06:02:28;;;;;;;;;;;;;;;5.56;58.13;101913.75;5045294;28;19975;-56
2022/12/02 06:04:54;;;;;;;;;;;;;;;5.60;58.58;101909.47;5049725;28;20317;-58
2022/12/02 06:07:19;;;;;;;;;;;;;;;5.57;58.35;101910.28;5040950;28;19925;-56
2022/12/02 06:09:44;;;;;;;;;;;;;;;5.47;58.23;101916.16;5038343;28;19928;-55
2022/12/02 06:12:13;;;;;;;;;;;;;;;5.36;58.64;101915.00;5053953;28;20346;-54
2022/12/02 06:14:38;;;;;;;;;;;;;;;5.52;58.98;101916.25;5050255;28;20008;-53
2022/12/02 06:17:13;;;;;;;;;;;;;;;5.57;58.76;101912.00;5036418;28;20020;-54
2022/12/02 06:19:48;;;;;;;;;;;;;;;5.41;58.69;101924.69;5036101;28;19917;-55
2022/12/02 06:22:16;;;;;;;;;;;;;;;5.24;59.66;101928.63;5036295;28;20422;-55
2022/12/02 06:24:42;;;;;;;;;;;;;;;5.19;59.69;101925.91;5036146;28;19959;-54
2022/12/02 06:27:11;;;;;;;;;;;;;;;5.31;59.33;101932.28;5037819;28;20341;-53
2022/12/02 06:29:37;;;;;;;;;;;;;;;5.22;59.06;101932.03;5036683;28;19925;-53
2022/12/02 06:32:05;;;;;;;;;;;;;;;5.16;59.34;101936.25;5055821;28;19967;-57
2022/12/02 06:34:35;;;;;;;;;;;;;;;5.24;59.26;101933.81;5055935;28;20368;-52
2022/12/02 06:37:08;;;;;;;;;;;;;;;5.35;59.27;101941.91;5055803;28;19917;-52
2022/12/02 06:39:33;;;;;;;;;;;;;;;5.35;58.89;101932.38;5055896;28;19924;-53
2022/12/02 06:42:01;;;;;;;;;;;;;;;5.31;58.87;101937.47;5053172;28;19925;-54
2022/12/02 06:47:29;;;;;;;;;;;;;;;5.28;58.74;101942.59;5036061;28;19929;-53
2022/12/02 06:49:54;;;;;;;;;;;;;;;5.15;59.14;101939.69;5040130;28;19927;-53
2022/12/02 06:52:21;;;;;;;;;;;;;;;5.35;58.96;101936.72;5042140;28;19925;-56
2022/12/02 06:54:46;;;;;;;;;;;;;;;5.33;59.00;101938.38;5037960;28;19921;-54
2022/12/02 06:57:14;;;;;;;;;;;;;;;5.37;59.23;101942.81;5039495;28;20262;-56
2022/12/02 06:59:39;;;;;;;;;;;;;;;5.40;58.80;101935.97;5038152;28;19921;-55
2022/12/02 07:02:14;;;;;;;;;;;;;;;5.38;58.81;101945.47;5046239;28;20368;-55
2022/12/02 07:04:40;;;;;;;;;;;;;;;5.42;58.93;101949.03;5045548;28;19920;-56
2022/12/02 07:07:24;;;;;;;;;;;;;;;5.42;58.83;101949.03;5039105;28;19917;-54
2022/12/02 07:10:00;;;;;;;;;;;;;;;5.27;58.56;101951.28;5044202;28;19920;-57
2022/12/02 07:12:31;;;;;;;;;;;;;;;5.44;58.64;101949.97;5039590;28;20275;-58
2022/12/02 07:14:57;;;;;;;;;;;;;;;5.51;58.39;101953.59;5044699;28;19967;-57
2022/12/02 07:17:28;;;;;;;;;;;;;;;5.34;58.65;101951.44;5041801;28;19921;-59
2022/12/02 07:19:56;;;;;;;;;;;;;;;5.44;58.38;101947.34;5040530;28;20008;-57
2022/12/02 07:22:29;;;;;;;;;;;;;;;5.39;58.73;101947.25;5051647;28;19916;-60
2022/12/02 07:25:04;;;;;;;;;;;;;;;5.46;58.57;101950.84;5047579;28;19948;-58
2022/12/02 07:27:30;;;;;;;;;;;;;;;5.28;57.99;101947.81;5034871;28;20434;-56
2022/12/02 07:29:56;;;;;;;;;;;;;;;5.29;58.33;101953.06;5043656;28;20322;-57
2022/12/02 07:32:21;;;;;;;;;;;;;;;5.33;58.85;101946.19;5038405;28;20011;-58
2022/12/02 07:34:48;;;;;;;;;;;;;;;5.39;58.87;101955.06;5040089;28;20415;-59
2022/12/02 07:37:13;;;;;;;;;;;;;;;5.38;58.48;101958.50;5051973;28;19921;-59
2022/12/02 07:39:39;;;;;;;;;;;;;;;5.21;58.48;101948.50;5053909;28;19927;-58
2022/12/02 07:42:04;;;;;;;;;;;;;;;5.25;58.76;101945.13;5036012;28;20373;-58
2022/12/02 07:44:29;;;;;;;;;;;;;;;5.29;58.19;101952.19;5043319;28;19974;-58
2022/12/02 07:46:55;;;;;;;;;;;;;;;5.28;58.15;101953.03;5052156;28;19982;-59
2022/12/02 07:49:20;;;;;;;;;;;;;;;5.34;58.85;101950.56;5041576;28;19952;-58
2022/12/02 07:51:45;;;;;;;;;;;;;;;5.43;58.38;101950.81;5046132;28;20281;-58
2022/12/02 07:54:10;;;;;;;;;;;;;;;5.51;58.12;101956.22;5035423;28;20304;-59
2022/12/02 07:56:36;;;;;;;;;;;;;;;5.40;57.60;101950.72;5034192;28;19921;-58
2022/12/02 07:59:01;;;;;;;;;;;;;;;5.39;57.88;101951.59;5052992;28;20059;-58
2022/12/02 08:01:27;;;;;;;;;;;;;;;5.31;57.84;101955.72;5054073;28;19917;-58
2022/12/02 08:03:52;;;;;;;;;;;;;;;5.31;58.09;101958.34;5052456;28;19921;-59
2022/12/02 08:06:17;;;;;;;;;;;;;;;5.23;58.39;101952.03;5049333;28;20373;-57
2022/12/02 08:08:42;;;;;;;;;;;;;;;5.19;57.87;101946.75;5038594;28;19975;-59
2022/12/02 08:11:08;;;;;;;;;;;;;;;5.29;58.70;101947.84;5035693;28;19921;-58
2022/12/02 08:13:33;;;;;;;;;;;;;;;5.40;57.80;101948.13;5034514;28;19932;-58
2022/12/02 08:15:58;;;;;;;;;;;;;;;5.38;57.81;101945.47;5046592;28;19921;-58
2022/12/02 08:18:24;;;;;;;;;;;;;;;5.43;57.94;101948.19;5037625;28;19929;-59
2022/12/02 08:20:49;;;;;;;;;;;;;;;5.51;57.55;101949.28;5041716;28;19948;-58
2022/12/02 08:23:14;;;;;;;;;;;;;;;5.51;57.68;101949.28;5046394;28;20292;-58
2022/12/02 08:25:39;;;;;;;;;;;;;;;5.40;57.11;101949.00;5039286;28;19925;-58
2022/12/02 08:28:05;;;;;;;;;;;;;;;5.41;57.57;101947.28;5038944;28;19925;-57
2022/12/02 08:30:30;;;;;;;;;;;;;;;5.31;57.67;101955.72;5043742;28;20011;-57
2022/12/02 08:32:55;;;;;;;;;;;;;;;5.36;57.92;101943.69;5048215;28;19978;-54
2022/12/02 08:35:20;;;;;;;;;;;;;;;5.33;57.84;101948.81;5046763;28;19932;-56
2022/12/02 08:37:46;;;;;;;;;;;;;;;5.41;57.50;101953.34;5038228;28;19963;-58
2022/12/02 08:40:11;;;;;;;;;;;;;;;5.41;57.11;101955.09;5038266;28;19926;-57
2022/12/02 08:42:37;;;;;;;;;;;;;;;5.45;57.18;101951.72;5033639;28;19951;-58
2022/12/02 08:45:02;;;;;;;;;;;;;;;5.43;57.14;101956.91;5051094;28;19932;-58
2022/12/02 08:47:27;;;;;;;;;;;;;;;5.45;56.67;101954.31;5049206;28;19950;-57
2022/12/02 08:49:52;;;;;;;;;;;;;;;5.54;56.78;101964.09;5054871;28;20004;-58
2022/12/02 08:52:18;;;;;;;;;;;;;;;5.39;56.38;101959.41;5042602;28;19925;-59
2022/12/02 08:54:44;;;;;;;;;;;;;;;5.32;56.86;101966.19;5048618;28;20455;-58
2022/12/02 08:57:10;;;;;;;;;;;;;;;5.31;56.74;101961.81;5041725;28;19944;-58
2022/12/02 08:59:35;;;;;;;;;;;;;;;5.33;56.91;101969.66;5038876;28;20388;-58
2022/12/02 09:02:00;;;;;;;;;;;;;;;5.44;57.00;101968.22;5037585;28;19921;-58
2022/12/02 09:04:25;;;;;;;;;;;;;;;5.41;56.96;101968.13;5037520;28;19971;-59
2022/12/02 09:06:51;;;;;;;;;;;;;;;5.58;56.91;101972.00;5037742;28;19922;-59
2022/12/02 09:09:16;;;;;;;;;;;;;;;5.46;56.46;101971.72;5036791;28;19921;-58
2022/12/02 09:11:41;;;;;;;;;;;;;;;5.39;57.07;101972.44;5035632;28;20409;-58
2022/12/02 09:14:07;;;;;;;;;;;;;;;5.31;57.74;101973.97;5037282;28;19925;-59
2022/12/02 09:16:32;;;;;;;;;;;;;;;5.39;57.85;101972.44;5051175;28;19976;-57
2022/12/02 09:18:57;;;;;;;;;;;;;;;5.34;57.50;101972.28;5037523;28;19974;-58
2022/12/02 09:21:23;;;;;;;;;;;;;;;5.30;57.47;101980.00;5037396;28;19921;-57
2022/12/02 09:23:48;;;;;;;;;;;;;;;5.28;57.77;101979.09;5037311;28;19971;-57
2022/12/02 09:26:13;;;;;;;;;;;;;;;5.32;58.35;101980.94;5037363;28;20380;-57
2022/12/02 09:28:38;;;;;;;;;;;;;;;5.36;57.45;101980.16;5037172;28;19921;-56
2022/12/02 09:31:04;;;;;;;;;;;;;;;5.31;57.68;101980.06;5035922;28;20012;-58
2022/12/02 09:33:29;;;;;;;;;;;;;;;5.24;57.57;101979.88;5038097;28;19925;-59
2022/12/02 09:35:54;;;;;;;;;;;;;;;5.22;57.52;101976.31;5036561;28;19932;-58
2022/12/02 09:38:20;;;;;;;;;;;;;;;5.32;57.53;101974.00;5052043;28;20373;-57
2022/12/02 09:40:45;;;;;;;;;;;;;;;5.27;58.75;101974.72;5036519;28;19931;-56
2022/12/02 09:43:11;;;;;;;;;;;;;;;5.14;58.39;101970.91;5048473;28;19928;-56
2022/12/02 09:45:36;;;;;;;;;;;;;;;5.23;57.98;101976.38;5056623;28;20395;-57
2022/12/02 09:48:01;;;;;;;;;;;;;;;5.08;57.98;101979.47;5056980;28;19921;-56
2022/12/02 09:50:26;;;;;;;;;;;;;;;5.15;58.54;101972.69;5055769;28;19956;-57
2022/12/02 09:52:53;;;;;;;;;;;;;;;5.10;57.91;101977.75;5056709;28;19964;-55
2022/12/02 09:55:19;;;;;;;;;;;;;;;5.26;57.46;101978.16;5051305;28;19982;-56
2022/12/02 09:57:45;;;;;;;;;;;;;;;5.27;59.88;101969.53;5044957;28;19917;-57
2022/12/02 10:00:14;;;;;;;;;;;;;;;5.59;66.92;101973.81;5055972;28;19924;-57
2022/12/02 10:02:42;;;;;;;;;;;;;;;5.83;59.47;101970.88;5040906;28;19917;-57
2022/12/02 10:05:19;;;;;;;;;;;;;;;5.69;60.26;101965.31;5033835;28;19917;-57
2022/12/02 10:07:45;;;;;;;;;;;;;;;5.75;58.19;101969.81;5047078;28;19917;-58
2022/12/02 10:10:11;;;;;;;;;;;;;;;5.82;56.82;101968.22;5036498;28;19924;-57
2022/12/02 10:12:36;;;;;;;;;;;;;;;5.79;56.07;101969.06;5048240;28;20384;-58
2022/12/02 10:15:02;;;;;;;;;;;;;;;5.80;55.65;101973.41;5056408;28;19928;-58
2022/12/02 10:17:28;;;;;;;;;;;;;;;5.75;55.52;101975.03;5056333;28;20407;-57
2022/12/02 10:19:53;;;;;;;;;;;;;;;5.64;56.29;101971.28;5045157;28;19925;-57
2022/12/02 10:22:19;;;;;;;;;;;;;;;5.39;56.71;101970.69;5040727;28;19987;-57
2022/12/02 10:24:45;;;;;;;;;;;;;;;5.55;56.04;101965.88;5045887;28;19917;-57
2022/12/02 10:27:30;;;;;;;;;;;;;;;5.49;55.68;101966.59;5039189;28;20053;-57
2022/12/02 10:30:13;;;;;;;;;;;;;;;5.47;55.78;101963.06;5055270;28;20351;-57
2022/12/02 10:32:39;;;;;;;;;;;;;;;5.52;56.66;101960.56;5055909;28;20011;-58
2022/12/02 10:35:05;;;;;;;;;;;;;;;5.57;55.94;101958.94;5055988;28;19972;-58
2022/12/02 10:37:32;;;;;;;;;;;;;;;5.47;55.76;101960.47;5055878;28;19923;-57
2022/12/02 10:40:20;;;;;;;;;;;;;;;5.36;57.24;101959.31;5040879;28;19940;-57
2022/12/02 10:42:46;;;;;;;;;;;;;;;5.29;56.51;101960.00;5032416;28;19928;-57
2022/12/02 10:45:22;;;;;;;;;;;;;;;5.33;56.38;101964.44;5035943;28;19968;-59
2022/12/02 10:47:49;;;;;;;;;;;;;;;5.25;55.96;101955.56;5034370;28;20133;-58
2022/12/02 10:50:18;;;;;;;;;;;;;;;5.05;56.85;101958.53;5037535;28;19921;-58
2022/12/02 10:52:45;;;;;;;;;;;;;;;4.99;56.16;101955.78;5037501;28;19925;-56
2022/12/02 10:55:11;;;;;;;;;;;;;;;5.02;57.87;101953.22;5035108;28;19917;-57
2022/12/02 10:57:38;;;;;;;;;;;;;;;5.08;56.45;101958.63;5035716;28;19917;-55
2022/12/02 11:00:06;;;;;;;;;;;;;;;5.07;56.26;101958.59;5035830;28;19925;-56
2022/12/02 11:02:34;;;;;;;;;;;;;;;4.91;56.38;101960.78;5035692;28;19919;-57
2022/12/02 11:05:09;;;;;;;;;;;;;;;4.90;56.09;101952.91;5035562;28;20059;-57
2022/12/02 11:07:35;;;;;;;;;;;;;;;4.74;56.82;101958.56;5035728;28;19918;-58
2022/12/02 11:10:01;;;;;;;;;;;;;;;4.94;57.13;101955.63;5034671;28;19928;-56
2022/12/02 11:12:56;;;;;;;;;;;;;;;5.06;56.79;101952.47;5035528;28;19922;-57
2022/12/02 11:15:33;;;;;;;;;;;;;;;5.00;56.45;101957.53;5029921;28;19917;-56
2022/12/02 11:17:58;;;;;;;;;;;;;;;5.05;56.75;101955.03;5035272;28;19921;-57
2022/12/02 11:20:37;;;;;;;;;;;;;;;4.86;56.35;101953.66;5035442;28;19924;-55
2022/12/02 11:23:06;;;;;;;;;;;;;;;4.77;57.12;101951.72;5035259;28;19917;-57
2022/12/02 11:25:46;;;;;;;;;;;;;;;4.53;58.38;101956.25;5035109;28;19924;-57
2022/12/02 11:28:11;;;;;;;;;;;;;;;4.57;59.46;101952.88;5035131;28;19917;-56
2022/12/02 11:30:37;;;;;;;;;;;;;;;4.70;56.32;101955.84;5035156;28;20276;-56
2022/12/02 11:33:02;;;;;;;;;;;;;;;4.73;55.89;101957.69;5035110;28;20273;-58
2022/12/02 11:35:46;;;;;;;;;;;;;;;4.65;56.42;101962.66;5034999;28;19921;-56
2022/12/02 11:38:18;;;;;;;;;;;;;;;4.79;57.40;101959.56;5034967;28;19924;-56
2022/12/02 11:40:43;;;;;;;;;;;;;;;4.91;55.82;101944.28;5035196;28;19923;-54
2022/12/02 11:43:27;;;;;;;;;;;;;;;5.16;55.70;101937.97;5043389;28;19916;-56
2022/12/02 11:45:55;;;;;;;;;;;;;;;5.22;57.44;101934.63;5055107;28;19917;-57
2022/12/02 11:48:20;;;;;;;;;;;;;;;5.24;55.38;101927.75;5047516;28;19917;-57
2022/12/02 11:50:46;;;;;;;;;;;;;;;5.30;55.54;101927.88;5035059;28;19927;-58
2022/12/02 11:53:14;;;;;;;;;;;;;;;5.34;54.62;101924.50;5034750;28;19971;-56
2022/12/02 11:55:41;;;;;;;;;;;;;;;5.35;56.35;101921.06;5034766;28;20383;-57
2022/12/02 11:58:26;;;;;;;;;;;;;;;5.33;54.82;101921.00;5033589;28;20157;-56
2022/12/02 12:01:04;;;;;;;;;;;;;;;5.48;55.70;101919.63;5034645;28;19917;-57
2022/12/02 12:03:29;;;;;;;;;;;;;;;5.60;54.49;101919.91;5034503;28;19917;-57
2022/12/02 12:06:08;;;;;;;;;;;;;;;5.56;54.45;101920.69;5033633;28;19992;-55
2022/12/02 12:08:34;;;;;;;;;;;;;;;5.40;54.04;101919.44;5034452;28;19924;-57
2022/12/02 12:11:19;;;;;;;;;;;;;;;5.44;53.83;101916.94;5034410;28;19956;-57
2022/12/02 12:14:00;;;;;;;;;;;;;;;5.39;53.78;101913.34;5034159;28;19921;-57
2022/12/02 12:16:26;;;;;;;;;;;;;;;5.44;54.46;101916.06;5034179;28;19917;-57
2022/12/02 12:18:52;;;;;;;;;;;;;;;5.53;54.48;101916.28;5034433;28;20390;-57
2022/12/02 12:21:29;;;;;;;;;;;;;;;5.57;53.53;101915.50;5034295;28;20356;-57
2022/12/02 12:23:55;;;;;;;;;;;;;;;5.69;53.24;101912.28;5033942;28;20319;-57
2022/12/02 12:26:31;;;;;;;;;;;;;;;5.65;53.27;101911.34;5034600;28;19921;-58
2022/12/02 12:29:00;;;;;;;;;;;;;;;5.62;52.90;101913.00;5034222;28;19917;-57
2022/12/02 12:31:25;;;;;;;;;;;;;;;5.54;53.05;101907.59;5034004;28;19917;-58
2022/12/02 12:33:50;;;;;;;;;;;;;;;5.66;53.40;101907.91;5033807;28;19928;-57
2022/12/02 12:36:15;;;;;;;;;;;;;;;5.81;52.93;101903.88;5032600;28;19928;-55
2022/12/02 12:38:41;;;;;;;;;;;;;;;5.71;52.79;101910.63;5033696;28;19921;-56
2022/12/02 12:41:06;;;;;;;;;;;;;;;5.82;53.06;101901.28;5032501;28;19921;-59
2022/12/02 12:43:31;;;;;;;;;;;;;;;5.71;52.78;101901.91;5035611;28;20268;-55
2022/12/02 12:45:56;;;;;;;;;;;;;;;5.67;53.55;101898.34;5033805;28;19921;-57
2022/12/02 12:48:22;;;;;;;;;;;;;;;5.51;54.11;101893.63;5032425;28;19921;-58
2022/12/02 12:50:47;;;;;;;;;;;;;;;5.46;53.60;101903.94;5033897;28;19921;-56